createdAt,value
2018-09-13T00:00:34.939Z,51.57
2018-09-13T00:01:34.734Z,50.97
2018-09-13T00:02:34.557Z,51.47
2018-09-13T00:03:34.373Z,51.87
2018-09-13T00:04:34.191Z,52.07
2018-09-13T00:05:34.036Z,51.47
2018-09-13T00:06:33.832Z,51.87
2018-09-13T00:07:33.649Z,52.17
2018-09-13T00:08:33.473Z,52.07
2018-09-13T00:09:33.296Z,51.77
2018-09-13T00:10:33.166Z,52.57
2018-09-13T00:11:32.963Z,52.47
2018-09-13T00:12:32.790Z,52.47
2018-09-13T00:13:32.619Z,52.69
2018-09-13T00:14:32.449Z,52.57
2018-09-13T00:15:32.276Z,52.17
2018-09-13T00:16:32.130Z,52.17
2018-09-13T00:17:31.928Z,53.09
2018-09-13T00:18:31.763Z,52.87
2018-09-13T00:19:31.586Z,53.09
2018-09-13T00:20:31.413Z,52.89
2018-09-13T00:21:31.270Z,52.99
2018-09-13T00:22:31.072Z,53.59
2018-09-13T00:23:30.903Z,53.19
2018-09-13T00:24:30.733Z,53.29
2018-09-13T00:25:30.565Z,53.39
2018-09-13T00:26:30.417Z,53.99
2018-09-13T00:27:30.221Z,52.89
2018-09-13T00:28:30.054Z,53.29
2018-09-13T00:29:29.890Z,53.69
2018-09-13T00:30:29.718Z,53.99
2018-09-13T00:31:29.579Z,53.92
2018-09-13T00:32:29.388Z,54.02
2018-09-13T00:33:29.222Z,54.11
2018-09-13T00:34:29.054Z,54.32
2018-09-13T00:35:28.889Z,54.32
2018-09-13T00:36:28.748Z,53.52
2018-09-13T00:37:28.553Z,53.92
2018-09-13T00:38:28.393Z,54.41
2018-09-13T00:39:28.227Z,53.81
2018-09-13T00:40:28.069Z,54.02
2018-09-13T00:41:27.992Z,54.11
2018-09-13T00:42:27.736Z,54.11
2018-09-13T00:43:27.570Z,54.41
2018-09-13T00:44:27.403Z,53.52
2018-09-13T00:45:27.245Z,53.72
2018-09-13T00:46:27.103Z,54.02
2018-09-13T00:47:26.905Z,54.14
2018-09-13T00:48:26.742Z,54.71
2018-09-13T00:49:26.574Z,54.44
2018-09-13T00:50:26.414Z,54.44
2018-09-13T00:51:26.282Z,55.21
2018-09-13T00:52:26.095Z,55.44
2018-09-13T00:53:25.933Z,54.94
2018-09-13T00:54:25.772Z,54.94
2018-09-13T00:55:25.602Z,55.14
2018-09-13T00:56:25.467Z,54.74
2018-09-13T00:57:25.275Z,55.34
2018-09-13T00:58:25.114Z,56.04
2018-09-13T00:59:24.950Z,55.84
2018-09-13T01:00:24.788Z,55.44
2018-09-13T01:01:24.656Z,55.54
2018-09-13T01:02:24.462Z,56.04
2018-09-13T01:03:24.300Z,55.94
2018-09-13T01:04:24.140Z,55.54
2018-09-13T01:05:23.977Z,55.74
2018-09-13T01:06:23.838Z,55.94
2018-09-13T01:07:23.647Z,56.04
2018-09-13T01:08:23.492Z,56.04
2018-09-13T01:09:23.321Z,55.74
2018-09-13T01:10:23.156Z,56.16
2018-09-13T01:11:23.032Z,55.54
2018-09-13T01:12:22.829Z,55.84
2018-09-13T01:13:22.660Z,56.04
2018-09-13T01:14:22.492Z,55.87
2018-09-13T01:15:22.331Z,56.04
2018-09-13T01:16:22.165Z,55.64
2018-09-13T01:17:22.025Z,56.07
2018-09-13T01:18:21.835Z,55.97
2018-09-13T01:19:21.664Z,55.57
2018-09-13T01:20:21.496Z,55.97
2018-09-13T01:21:21.329Z,56.07
2018-09-13T01:22:21.189Z,55.87
2018-09-13T01:23:21.003Z,55.47
2018-09-13T01:24:20.840Z,55.66
2018-09-13T01:25:20.674Z,55.97
2018-09-13T01:26:20.512Z,56.07
2018-09-13T01:27:20.374Z,56.37
2018-09-13T01:28:20.184Z,56.87
2018-09-13T01:29:20.016Z,57.19
2018-09-13T01:30:19.853Z,57.50
2018-09-13T01:31:19.693Z,57.09
2018-09-13T01:32:19.555Z,56.99
2018-09-13T01:33:19.364Z,57.59
2018-09-13T01:34:19.202Z,56.59
2018-09-13T01:35:19.035Z,56.79
2018-09-13T01:36:18.869Z,57.69
2018-09-13T01:37:18.736Z,57.50
2018-09-13T01:38:18.540Z,57.69
2018-09-13T01:39:18.377Z,56.39
2018-09-13T01:40:18.214Z,57.29
2018-09-13T01:41:18.052Z,57.69
2018-09-13T01:42:17.917Z,57.42
2018-09-13T01:43:17.728Z,57.72
2018-09-13T01:44:17.565Z,57.95
2018-09-13T01:45:17.404Z,57.85
2018-09-13T01:46:17.238Z,58.05
2018-09-13T01:47:17.110Z,58.35
2018-09-13T01:48:16.918Z,57.65
2018-09-13T01:49:16.751Z,57.95
2018-09-13T01:50:16.588Z,57.78
2018-09-13T01:51:16.435Z,58.05
2018-09-13T01:52:16.301Z,58.58
2018-09-13T01:53:16.115Z,58.68
2018-09-13T01:54:15.955Z,58.48
2018-09-13T01:55:15.798Z,58.58
2018-09-13T01:56:15.640Z,58.58
2018-09-13T01:57:15.505Z,58.78
2018-09-13T01:58:15.320Z,59.68
2018-09-13T01:59:15.164Z,59.48
2018-09-13T02:00:15.002Z,59.28
2018-09-13T02:01:14.845Z,59.41
2018-09-13T02:02:14.712Z,59.70
2018-09-13T02:03:14.533Z,59.50
2018-09-13T02:04:14.381Z,58.91
2018-09-13T02:05:14.227Z,59.41
2018-09-13T02:06:14.077Z,59.50
2018-09-13T02:07:13.953Z,59.41
2018-09-13T02:08:13.773Z,59.50
2018-09-13T02:09:13.626Z,59.50
2018-09-13T02:10:13.476Z,59.20
2018-09-13T02:11:13.329Z,58.91
2018-09-13T02:12:13.202Z,59.50
2018-09-13T02:13:13.029Z,58.91
2018-09-13T02:14:12.870Z,59.31
2018-09-13T02:15:12.728Z,59.70
2018-09-13T02:16:12.577Z,60.51
2018-09-13T02:17:12.456Z,60.44
2018-09-13T02:18:12.274Z,60.44
2018-09-13T02:19:12.123Z,60.81
2018-09-13T02:20:11.970Z,60.24
2018-09-13T02:21:11.822Z,60.94
2018-09-13T02:22:11.672Z,61.04
2018-09-13T02:23:11.555Z,60.64
2018-09-13T02:24:11.373Z,61.34
2018-09-13T02:25:11.223Z,61.04
2018-09-13T02:26:11.073Z,61.14
2018-09-13T02:27:10.923Z,60.84
2018-09-13T02:28:10.806Z,61.24
2018-09-13T02:29:10.627Z,61.34
2018-09-13T02:30:10.482Z,61.54
2018-09-13T02:31:10.334Z,61.04
2018-09-13T02:32:10.190Z,61.36
2018-09-13T02:33:10.091Z,61.47
2018-09-13T02:34:09.919Z,61.87
2018-09-13T02:35:09.762Z,62.17
2018-09-13T02:36:09.622Z,61.97
2018-09-13T02:37:09.476Z,62.80
2018-09-13T02:38:09.361Z,62.60
2018-09-13T02:39:09.202Z,62.70
2018-09-13T02:40:09.054Z,62.60
2018-09-13T02:41:08.918Z,62.70
2018-09-13T02:42:08.778Z,62.80
2018-09-13T02:43:08.668Z,62.47
2018-09-13T02:44:08.505Z,62.07
2018-09-13T02:45:08.367Z,62.47
2018-09-13T02:46:08.241Z,62.07
2018-09-13T02:47:08.096Z,61.90
2018-09-13T02:48:07.987Z,61.57
2018-09-13T02:49:07.861Z,61.70
2018-09-13T02:50:07.681Z,61.67
2018-09-13T02:51:07.546Z,61.67
2018-09-13T02:52:07.402Z,62.17
2018-09-13T02:53:07.293Z,61.04
2018-09-13T02:54:07.125Z,60.94
2018-09-13T02:55:06.992Z,61.27
2018-09-13T02:56:06.846Z,61.14
2018-09-13T02:57:06.701Z,61.04
2018-09-13T02:58:06.589Z,61.34
2018-09-13T02:59:06.421Z,60.84
2018-09-13T03:00:06.276Z,61.34
2018-09-13T03:01:06.135Z,61.14
2018-09-13T03:02:05.995Z,61.04
2018-09-13T03:03:05.887Z,60.64
2018-09-13T03:04:05.711Z,61.04
2018-09-13T03:05:05.571Z,61.04
2018-09-13T03:06:05.429Z,60.47
2018-09-13T03:07:05.296Z,61.64
2018-09-13T03:08:05.227Z,61.64
2018-09-13T03:09:05.012Z,61.34
2018-09-13T03:10:04.884Z,60.97
2018-09-13T03:11:04.739Z,61.57
2018-09-13T03:12:04.600Z,61.07
2018-09-13T03:13:04.491Z,61.17
2018-09-13T03:14:04.332Z,60.97
2018-09-13T03:15:04.197Z,61.07
2018-09-13T03:16:04.065Z,61.57
2018-09-13T03:17:03.938Z,61.47
2018-09-13T03:18:03.824Z,60.97
2018-09-13T03:19:03.678Z,61.77
2018-09-13T03:20:03.548Z,61.07
2018-09-13T03:21:03.411Z,61.36
2018-09-13T03:22:03.276Z,61.07
2018-09-13T03:23:03.193Z,61.27
2018-09-13T03:24:03.008Z,61.67
2018-09-13T03:25:02.877Z,61.57
2018-09-13T03:26:02.744Z,61.57
2018-09-13T03:27:02.610Z,61.87
2018-09-13T03:28:02.479Z,61.36
2018-09-13T03:29:02.367Z,61.60
2018-09-13T03:30:02.205Z,61.27
2018-09-13T03:31:02.070Z,62.00
2018-09-13T03:32:01.933Z,61.36
2018-09-13T03:33:01.801Z,61.70
2018-09-13T03:34:01.682Z,62.10
2018-09-13T03:35:01.517Z,61.40
2018-09-13T03:36:01.376Z,61.47
2018-09-13T03:37:01.244Z,61.50
2018-09-13T03:38:01.101Z,61.60
2018-09-13T03:39:00.990Z,61.60
2018-09-13T03:40:00.833Z,62.20
2018-09-13T03:41:00.693Z,62.30
2018-09-13T03:42:00.628Z,62.00
2018-09-13T03:43:00.433Z,62.50
2018-09-13T03:44:00.324Z,62.00
2018-09-13T03:45:00.157Z,62.60
2018-09-13T03:46:00.029Z,62.33
2018-09-13T03:46:59.892Z,62.03
2018-09-13T03:47:59.753Z,62.33
2018-09-13T03:48:59.640Z,62.30
2018-09-13T03:49:59.481Z,62.33
2018-09-13T03:50:59.348Z,62.50
2018-09-13T03:51:59.216Z,62.33
2018-09-13T03:52:59.085Z,62.23
2018-09-13T03:53:58.983Z,62.33
2018-09-13T03:54:58.823Z,62.43
2018-09-13T03:55:58.688Z,62.20
2018-09-13T03:56:58.552Z,62.50
2018-09-13T03:57:58.435Z,62.83
2018-09-13T03:58:58.312Z,62.63
2018-09-13T03:59:58.151Z,62.93
2018-09-13T04:00:58.019Z,62.23
2018-09-13T04:01:57.884Z,62.00
2018-09-13T04:02:57.751Z,62.43
2018-09-13T04:03:57.648Z,62.23
2018-09-13T04:04:57.490Z,62.13
2018-09-13T04:05:57.359Z,61.83
2018-09-13T04:06:57.225Z,62.43
2018-09-13T04:07:57.091Z,62.63
2018-09-13T04:08:56.986Z,62.23
2018-09-13T04:09:56.878Z,62.63
2018-09-13T04:10:56.700Z,62.23
2018-09-13T04:11:56.566Z,62.43
2018-09-13T04:12:56.436Z,62.53
2018-09-13T04:13:56.329Z,62.96
2018-09-13T04:14:56.170Z,63.36
2018-09-13T04:15:56.047Z,63.36
2018-09-13T04:16:55.920Z,63.33
2018-09-13T04:17:55.793Z,63.46
2018-09-13T04:18:55.792Z,63.36
2018-09-13T04:19:55.548Z,63.26
2018-09-13T04:20:55.416Z,63.26
2018-09-13T04:21:55.294Z,63.17
2018-09-13T04:22:55.168Z,63.36
2018-09-13T04:23:55.067Z,63.26
2018-09-13T04:24:54.913Z,63.17
2018-09-13T04:25:54.786Z,62.96
2018-09-13T04:26:54.656Z,63.26
2018-09-13T04:27:54.744Z,63.36
2018-09-13T04:28:54.442Z,63.36
2018-09-13T04:29:54.276Z,62.96
2018-09-13T04:30:54.150Z,63.26
2018-09-13T04:31:54.021Z,63.17
2018-09-13T04:32:53.923Z,63.76
2018-09-13T04:33:53.762Z,63.59
2018-09-13T04:34:53.666Z,64.30
2018-09-13T04:35:53.658Z,63.59
2018-09-13T04:36:53.384Z,63.39
2018-09-13T04:37:53.264Z,63.59
2018-09-13T04:38:53.139Z,63.49
2018-09-13T04:39:53.039Z,63.79
2018-09-13T04:40:52.892Z,63.79
2018-09-13T04:41:52.769Z,63.59
2018-09-13T04:42:52.651Z,63.39
2018-09-13T04:43:52.532Z,64.50
2018-09-13T04:44:52.442Z,63.90
2018-09-13T04:45:52.293Z,63.49
2018-09-13T04:46:52.170Z,64.40
2018-09-13T04:47:52.048Z,64.30
2018-09-13T04:48:51.925Z,63.59
2018-09-13T04:49:51.828Z,63.90
2018-09-13T04:50:51.683Z,64.00
2018-09-13T04:51:51.569Z,64.00
2018-09-13T04:52:51.449Z,63.79
2018-09-13T04:53:51.326Z,64.23
2018-09-13T04:54:51.237Z,65.03
2018-09-13T04:55:51.097Z,64.60
2018-09-13T04:56:50.981Z,64.00
2018-09-13T04:57:50.865Z,64.63
2018-09-13T04:58:50.753Z,64.50
2018-09-13T04:59:50.658Z,64.43
2018-09-13T05:00:50.513Z,65.23
2018-09-13T05:01:50.398Z,64.33
2018-09-13T05:02:50.286Z,64.83
2018-09-13T05:03:50.193Z,65.03
2018-09-13T05:04:50.078Z,64.83
2018-09-13T05:05:49.936Z,64.43
2018-09-13T05:06:49.823Z,65.03
2018-09-13T05:07:49.709Z,64.33
2018-09-13T05:08:49.593Z,64.83
2018-09-13T05:09:49.506Z,64.83
2018-09-13T05:10:49.360Z,64.23
2018-09-13T05:11:49.244Z,65.13
2018-09-13T05:12:49.170Z,65.33
2018-09-13T05:13:49.009Z,65.36
2018-09-13T05:14:48.916Z,65.23
2018-09-13T05:15:48.769Z,65.94
2018-09-13T05:16:48.656Z,64.93
2018-09-13T05:17:48.545Z,65.13
2018-09-13T05:18:48.438Z,65.13
2018-09-13T05:19:48.352Z,64.93
2018-09-13T05:20:48.229Z,65.53
2018-09-13T05:21:48.101Z,64.83
2018-09-13T05:22:47.983Z,64.83
2018-09-13T05:23:47.869Z,63.82
2018-09-13T05:24:47.780Z,64.73
2018-09-13T05:25:47.644Z,64.83
2018-09-13T05:26:48.424Z,64.33
2018-09-13T05:27:47.405Z,64.93
2018-09-13T05:28:47.315Z,64.23
2018-09-13T05:29:47.204Z,64.20
2018-09-13T05:30:47.064Z,64.43
2018-09-13T05:31:47.050Z,64.43
2018-09-13T05:32:46.818Z,64.03
2018-09-13T05:33:46.700Z,64.53
2018-09-13T05:34:46.608Z,64.20
2018-09-13T05:35:46.458Z,65.13
2018-09-13T05:36:46.337Z,63.82
2018-09-13T05:37:46.215Z,63.82
2018-09-13T05:38:46.116Z,64.43
2018-09-13T05:39:46.021Z,63.82
2018-09-13T05:40:45.852Z,64.73
2018-09-13T05:41:45.737Z,63.90
2018-09-13T05:42:45.618Z,64.33
2018-09-13T05:43:45.502Z,63.79
2018-09-13T05:44:45.433Z,63.82
2018-09-13T05:45:45.291Z,64.30
2018-09-13T05:46:45.152Z,63.70
2018-09-13T05:47:45.035Z,64.53
2018-09-13T05:48:44.918Z,64.33
2018-09-13T05:49:44.802Z,65.13
2018-09-13T05:50:44.716Z,64.73
2018-09-13T05:51:44.581Z,64.33
2018-09-13T05:52:44.469Z,64.23
2018-09-13T05:53:44.360Z,64.93
2018-09-13T05:54:44.251Z,65.13
2018-09-13T05:55:44.171Z,64.53
2018-09-13T05:56:44.026Z,64.33
2018-09-13T05:57:43.912Z,64.33
2018-09-13T05:58:43.795Z,65.03
2018-09-13T05:59:43.679Z,64.63
2018-09-13T06:00:43.598Z,64.63
2018-09-13T06:01:43.478Z,64.10
2018-09-13T06:02:43.330Z,64.03
2018-09-13T06:03:43.210Z,63.62
2018-09-13T06:04:43.092Z,64.00
2018-09-13T06:05:43.000Z,64.00
2018-09-13T06:06:42.853Z,64.53
2018-09-13T06:07:42.734Z,64.10
2018-09-13T06:08:42.624Z,64.50
2018-09-13T06:09:42.502Z,64.70
2018-09-13T06:10:42.400Z,65.10
2018-09-13T06:11:42.258Z,64.40
2018-09-13T06:12:42.145Z,65.84
2018-09-13T06:13:42.132Z,64.73
2018-09-13T06:14:41.922Z,64.83
2018-09-13T06:15:41.820Z,64.40
2018-09-13T06:16:41.672Z,65.13
2018-09-13T06:17:41.564Z,65.53
2018-09-13T06:18:41.433Z,64.83
2018-09-13T06:19:41.338Z,65.23
2018-09-13T06:20:41.224Z,65.00
2018-09-13T06:21:41.080Z,65.44
2018-09-13T06:22:40.965Z,65.33
2018-09-13T06:23:40.845Z,64.83
2018-09-13T06:24:40.732Z,65.44
2018-09-13T06:25:40.640Z,65.84
2018-09-13T06:26:40.500Z,66.03
2018-09-13T06:27:40.379Z,66.14
2018-09-13T06:28:40.264Z,67.04
2018-09-13T06:29:40.208Z,67.07
2018-09-13T06:30:40.060Z,66.77
2018-09-13T06:31:39.917Z,67.31
2018-09-13T06:32:39.794Z,67.31
2018-09-13T06:33:39.680Z,66.87
2018-09-13T06:34:39.559Z,66.71
2018-09-13T06:35:39.471Z,67.11
2018-09-13T06:36:39.349Z,66.77
2018-09-13T06:37:39.207Z,67.07
2018-09-13T06:38:39.103Z,66.37
2018-09-13T06:39:38.977Z,67.07
2018-09-13T06:40:38.887Z,66.17
2018-09-13T06:41:38.742Z,66.37
2018-09-13T06:42:38.617Z,65.13
2018-09-13T06:43:38.519Z,65.23
2018-09-13T06:44:38.376Z,65.84
2018-09-13T06:45:38.286Z,64.73
2018-09-13T06:46:38.141Z,65.03
2018-09-13T06:47:38.019Z,65.30
2018-09-13T06:48:37.958Z,64.80
2018-09-13T06:49:37.784Z,65.20
2018-09-13T06:50:37.698Z,65.00
2018-09-13T06:51:37.575Z,65.00
2018-09-13T06:52:37.427Z,65.00
2018-09-13T06:53:37.309Z,64.47
2018-09-13T06:54:37.181Z,64.47
2018-09-13T06:55:37.060Z,63.96
2018-09-13T06:56:36.961Z,64.27
2018-09-13T06:57:36.813Z,64.37
2018-09-13T06:58:36.691Z,63.76
2018-09-13T06:59:36.571Z,63.67
2018-09-13T07:00:36.450Z,64.37
2018-09-13T07:01:36.361Z,63.96
2018-09-13T07:02:36.260Z,63.56
2018-09-13T07:03:36.092Z,63.43
2018-09-13T07:04:35.970Z,63.33
2018-09-13T07:05:35.849Z,62.63
2018-09-13T07:06:35.751Z,63.23
2018-09-13T07:07:35.597Z,63.03
2018-09-13T07:08:35.479Z,63.33
2018-09-13T07:09:35.345Z,63.23
2018-09-13T07:10:35.222Z,63.13
2018-09-13T07:11:35.126Z,63.23
2018-09-13T07:12:34.974Z,63.20
2018-09-13T07:13:34.855Z,63.53
2018-09-13T07:14:34.723Z,63.33
2018-09-13T07:15:34.598Z,63.13
2018-09-13T07:16:34.502Z,62.93
2018-09-13T07:17:34.347Z,63.43
2018-09-13T07:18:34.221Z,63.13
2018-09-13T07:19:34.100Z,62.93
2018-09-13T07:20:33.975Z,63.13
2018-09-13T07:21:33.873Z,62.93
2018-09-13T07:22:33.728Z,63.13
2018-09-13T07:23:33.605Z,63.43
2018-09-13T07:24:33.473Z,63.03
2018-09-13T07:25:33.351Z,63.10
2018-09-13T07:26:33.252Z,63.03
2018-09-13T07:27:33.092Z,62.80
2018-09-13T07:28:32.968Z,62.40
2018-09-13T07:29:32.845Z,63.10
2018-09-13T07:30:32.724Z,62.70
2018-09-13T07:31:32.622Z,62.80
2018-09-13T07:32:32.466Z,62.70
2018-09-13T07:33:32.338Z,62.07
2018-09-13T07:34:32.212Z,62.37
2018-09-13T07:35:32.076Z,62.10
2018-09-13T07:36:31.964Z,62.07
2018-09-13T07:37:31.807Z,61.87
2018-09-13T07:38:31.675Z,62.17
2018-09-13T07:39:31.544Z,61.97
2018-09-13T07:40:31.413Z,61.77
2018-09-13T07:41:31.313Z,61.77
2018-09-13T07:42:31.162Z,62.14
2018-09-13T07:43:31.018Z,61.67
2018-09-13T07:44:30.883Z,61.44
2018-09-13T07:45:30.751Z,61.64
2018-09-13T07:46:30.643Z,62.24
2018-09-13T07:47:30.481Z,62.17
2018-09-13T07:48:30.347Z,62.17
2018-09-13T07:49:30.317Z,61.97
2018-09-13T07:50:30.073Z,62.67
2018-09-13T07:51:29.971Z,62.57
2018-09-13T07:52:29.802Z,62.27
2018-09-13T07:53:29.669Z,62.47
2018-09-13T07:54:29.530Z,62.27
2018-09-13T07:55:29.395Z,62.37
2018-09-13T07:56:29.362Z,62.57
2018-09-13T07:57:29.128Z,62.37
2018-09-13T07:58:28.996Z,62.37
2018-09-13T07:59:28.855Z,62.57
2018-09-13T08:00:28.717Z,62.77
2018-09-13T08:01:28.587Z,62.27
2018-09-13T08:02:28.483Z,62.37
2018-09-13T08:03:28.319Z,62.57
2018-09-13T08:04:28.175Z,62.27
2018-09-13T08:05:28.042Z,62.37
2018-09-13T08:06:27.905Z,62.57
2018-09-13T08:07:27.801Z,62.64
2018-09-13T08:08:27.633Z,62.24
2018-09-13T08:09:27.513Z,62.54
2018-09-13T08:10:27.362Z,62.44
2018-09-13T08:11:27.227Z,62.07
2018-09-13T08:12:27.123Z,62.34
2018-09-13T08:13:26.953Z,62.34
2018-09-13T08:14:26.830Z,62.17
2018-09-13T08:15:26.681Z,62.04
2018-09-13T08:16:26.552Z,61.54
2018-09-13T08:17:26.441Z,62.34
2018-09-13T08:18:26.269Z,62.24
2018-09-13T08:19:26.132Z,61.94
2018-09-13T08:20:25.989Z,62.54
2018-09-13T08:21:25.854Z,62.17
2018-09-13T08:22:25.744Z,62.44
2018-09-13T08:23:25.585Z,62.04
2018-09-13T08:24:25.450Z,62.24
2018-09-13T08:25:25.315Z,62.14
2018-09-13T08:26:25.183Z,62.14
2018-09-13T08:27:25.078Z,62.44
2018-09-13T08:28:24.916Z,62.24
2018-09-13T08:29:24.779Z,62.04
2018-09-13T08:30:24.641Z,61.84
2018-09-13T08:31:24.504Z,62.04
2018-09-13T08:32:24.392Z,61.44
2018-09-13T08:33:24.334Z,61.54
2018-09-13T08:34:24.083Z,61.64
2018-09-13T08:35:23.942Z,61.41
2018-09-13T08:36:23.804Z,61.51
2018-09-13T08:37:23.690Z,61.51
2018-09-13T08:38:23.526Z,61.61
2018-09-13T08:39:23.391Z,61.41
2018-09-13T08:40:23.380Z,61.81
2018-09-13T08:41:23.104Z,61.38
2018-09-13T08:42:22.986Z,61.01
2018-09-13T08:43:22.821Z,61.01
2018-09-13T08:44:22.685Z,61.11
2018-09-13T08:45:22.537Z,60.88
2018-09-13T08:46:22.401Z,60.78
2018-09-13T08:47:22.281Z,60.61
2018-09-13T08:48:22.113Z,60.88
2018-09-13T08:49:21.974Z,60.78
2018-09-13T08:50:21.832Z,60.08
2018-09-13T08:51:21.688Z,60.28
2018-09-13T08:52:21.577Z,59.98
2018-09-13T08:53:21.404Z,60.08
2018-09-13T08:54:21.259Z,60.18
2018-09-13T08:55:21.117Z,59.98
2018-09-13T08:56:20.982Z,60.28
2018-09-13T08:57:20.857Z,59.88
2018-09-13T08:58:20.692Z,59.45
2018-09-13T08:59:20.552Z,59.45
2018-09-13T09:00:20.416Z,60.35
2018-09-13T09:01:20.271Z,59.75
2018-09-13T09:02:20.151Z,59.85
2018-09-13T09:03:19.978Z,59.75
2018-09-13T09:04:19.841Z,59.55
2018-09-13T09:05:19.683Z,59.45
2018-09-13T09:06:19.569Z,59.35
2018-09-13T09:07:19.421Z,59.55
2018-09-13T09:08:19.255Z,59.45
2018-09-13T09:09:19.102Z,59.35
2018-09-13T09:10:18.958Z,59.65
2018-09-13T09:11:18.804Z,59.65
2018-09-13T09:12:18.660Z,59.42
2018-09-13T09:13:18.537Z,59.62
2018-09-13T09:14:18.371Z,59.72
2018-09-13T09:15:18.218Z,59.32
2018-09-13T09:16:18.077Z,59.72
2018-09-13T09:17:17.919Z,59.62
2018-09-13T09:18:17.798Z,59.62
2018-09-13T09:19:17.624Z,58.92
2018-09-13T09:20:17.476Z,59.22
2018-09-13T09:21:17.328Z,59.42
2018-09-13T09:22:17.176Z,58.82
2018-09-13T09:23:17.054Z,59.39
2018-09-13T09:24:16.873Z,58.52
2018-09-13T09:25:16.721Z,58.19
2018-09-13T09:26:16.581Z,58.29
2018-09-13T09:27:16.429Z,58.49
2018-09-13T09:28:16.305Z,58.39
2018-09-13T09:29:16.198Z,58.29
2018-09-13T09:30:15.977Z,58.19
2018-09-13T09:31:15.837Z,58.29
2018-09-13T09:32:15.670Z,58.80
2018-09-13T09:33:15.542Z,57.76
2018-09-13T09:34:15.362Z,57.87
2018-09-13T09:35:15.210Z,57.67
2018-09-13T09:36:15.056Z,57.97
2018-09-13T09:37:14.902Z,58.29
2018-09-13T09:38:14.776Z,58.09
2018-09-13T09:39:14.596Z,58.26
2018-09-13T09:40:14.442Z,58.06
2018-09-13T09:41:14.284Z,57.46
2018-09-13T09:42:14.131Z,57.57
2018-09-13T09:43:13.995Z,57.54
2018-09-13T09:44:13.818Z,57.34
2018-09-13T09:45:13.648Z,57.54
2018-09-13T09:46:13.488Z,57.14
2018-09-13T09:47:13.337Z,57.24
2018-09-13T09:48:13.260Z,57.93
2018-09-13T09:49:12.998Z,57.87
2018-09-13T09:50:12.887Z,57.54
2018-09-13T09:51:12.677Z,57.74
2018-09-13T09:52:12.517Z,57.64
2018-09-13T09:53:12.375Z,57.64
2018-09-13T09:54:12.181Z,57.21
2018-09-13T09:55:12.016Z,56.84
2018-09-13T09:56:11.862Z,55.81
2018-09-13T09:57:11.681Z,55.81
2018-09-13T09:58:11.538Z,55.79
2018-09-13T09:59:11.343Z,55.88
2018-09-13T10:00:11.176Z,55.99
2018-09-13T10:01:11.012Z,56.09
2018-09-13T10:02:10.846Z,56.29
2018-09-13T10:03:10.732Z,56.09
2018-09-13T10:04:10.543Z,56.09
2018-09-13T10:05:10.335Z,55.96
2018-09-13T10:06:10.168Z,56.06
2018-09-13T10:07:09.986Z,55.99
2018-09-13T10:08:09.843Z,55.96
2018-09-13T10:09:09.726Z,55.46
2018-09-13T10:10:09.455Z,55.26
2018-09-13T10:11:09.276Z,55.26
2018-09-13T10:12:09.098Z,55.04
2018-09-13T10:13:08.958Z,54.94
2018-09-13T10:14:08.747Z,54.83
2018-09-13T10:15:08.619Z,54.94
2018-09-13T10:16:08.407Z,54.83
2018-09-13T10:17:08.231Z,54.74
2018-09-13T10:18:08.052Z,54.64
2018-09-13T10:19:07.905Z,54.66
2018-09-13T10:20:07.699Z,54.24
2018-09-13T10:21:07.520Z,54.24
2018-09-13T10:22:07.349Z,54.34
2018-09-13T10:23:07.167Z,53.94
2018-09-13T10:24:07.022Z,54.04
2018-09-13T10:25:06.810Z,54.24
2018-09-13T10:26:06.636Z,54.24
2018-09-13T10:27:06.490Z,53.84
2018-09-13T10:28:06.284Z,54.34
2018-09-13T10:29:06.145Z,54.44
2018-09-13T10:30:05.921Z,54.24
2018-09-13T10:31:05.745Z,54.24
2018-09-13T10:32:05.566Z,54.04
2018-09-13T10:33:05.388Z,54.34
2018-09-13T10:34:05.237Z,54.04
2018-09-13T10:35:05.038Z,54.44
2018-09-13T10:36:04.860Z,54.94
2018-09-13T10:37:04.691Z,54.76
2018-09-13T10:38:04.511Z,55.06
2018-09-13T10:39:04.366Z,54.86
2018-09-13T10:40:04.160Z,54.86
2018-09-13T10:41:03.980Z,54.96
2018-09-13T10:42:03.808Z,55.26
2018-09-13T10:43:03.629Z,54.96
2018-09-13T10:44:03.483Z,54.66
2018-09-13T10:45:03.273Z,54.76
2018-09-13T10:46:03.096Z,54.76
2018-09-13T10:47:02.924Z,54.96
2018-09-13T10:48:02.783Z,55.46
2018-09-13T10:49:02.568Z,54.76
2018-09-13T10:50:02.406Z,55.06
2018-09-13T10:51:02.203Z,54.86
2018-09-13T10:52:02.021Z,54.96
2018-09-13T10:53:01.849Z,54.86
2018-09-13T10:54:01.677Z,54.86
2018-09-13T10:55:01.513Z,54.76
2018-09-13T10:56:01.314Z,54.66
2018-09-13T10:57:01.131Z,54.96
2018-09-13T10:58:00.956Z,54.86
2018-09-13T10:59:00.839Z,54.96
2018-09-13T11:00:00.624Z,54.86
2018-09-13T11:01:00.428Z,55.46
2018-09-13T11:02:00.260Z,55.39
2018-09-13T11:03:00.085Z,55.46
2018-09-13T11:03:59.952Z,55.39
2018-09-13T11:04:59.760Z,55.39
2018-09-13T11:05:59.563Z,55.69
2018-09-13T11:06:59.384Z,55.49
2018-09-13T11:07:59.208Z,55.39
2018-09-13T11:08:59.037Z,55.99
2018-09-13T11:09:58.896Z,55.88
2018-09-13T11:10:58.760Z,55.71
2018-09-13T11:11:58.529Z,55.49
2018-09-13T11:12:58.359Z,55.58
2018-09-13T11:13:58.195Z,55.58
2018-09-13T11:14:58.055Z,55.51
2018-09-13T11:15:57.847Z,55.81
2018-09-13T11:16:57.673Z,55.09
2018-09-13T11:17:57.511Z,55.39
2018-09-13T11:18:57.331Z,55.29
2018-09-13T11:19:57.182Z,55.32
2018-09-13T11:20:56.982Z,55.29
2018-09-13T11:21:56.812Z,55.49
2018-09-13T11:22:56.640Z,55.19
2018-09-13T11:23:56.463Z,55.11
2018-09-13T11:24:56.338Z,55.41
2018-09-13T11:25:56.136Z,55.29
2018-09-13T11:26:55.962Z,55.58
2018-09-13T11:27:55.794Z,55.71
2018-09-13T11:28:55.628Z,56.01
2018-09-13T11:29:55.462Z,55.62
2018-09-13T11:30:55.319Z,56.01
2018-09-13T11:31:55.128Z,56.01
2018-09-13T11:32:54.958Z,56.31
2018-09-13T11:33:54.788Z,55.81
2018-09-13T11:34:54.619Z,55.81
2018-09-13T11:35:54.477Z,55.71
2018-09-13T11:36:54.281Z,55.62
2018-09-13T11:37:54.114Z,55.41
2018-09-13T11:38:53.944Z,55.39
2018-09-13T11:39:53.961Z,55.32
2018-09-13T11:40:53.963Z,55.39
2018-09-13T11:41:53.429Z,55.41
2018-09-13T11:42:53.253Z,55.88
2018-09-13T11:43:53.089Z,55.62
2018-09-13T11:44:52.916Z,55.62
2018-09-13T11:45:52.774Z,55.71
2018-09-13T11:46:52.577Z,56.01
2018-09-13T11:47:52.409Z,56.11
2018-09-13T11:48:52.236Z,56.11
2018-09-13T11:49:52.064Z,56.11
2018-09-13T11:50:51.923Z,56.11
2018-09-13T11:51:51.728Z,55.91
2018-09-13T11:52:51.563Z,56.01
2018-09-13T11:53:51.406Z,56.11
2018-09-13T11:54:51.232Z,55.62
2018-09-13T11:55:51.091Z,56.81
2018-09-13T11:56:50.898Z,56.91
2018-09-13T11:57:50.734Z,56.71
2018-09-13T11:58:50.565Z,56.61
2018-09-13T11:59:50.398Z,56.91
2018-09-13T12:00:50.246Z,55.51
2018-09-13T12:01:50.055Z,55.81
2018-09-13T12:02:49.885Z,55.81
2018-09-13T12:03:49.714Z,55.81
2018-09-13T12:04:49.550Z,55.71
2018-09-13T12:05:49.409Z,55.81
2018-09-13T12:06:49.213Z,56.09
2018-09-13T12:07:49.041Z,55.91
2018-09-13T12:08:48.872Z,55.81
2018-09-13T12:09:48.714Z,55.88
2018-09-13T12:10:48.572Z,56.41
2018-09-13T12:11:48.372Z,56.71
2018-09-13T12:12:48.209Z,57.21
2018-09-13T12:13:48.036Z,56.71
2018-09-13T12:14:47.858Z,55.81
2018-09-13T12:15:47.721Z,55.79
2018-09-13T12:16:47.517Z,56.11
2018-09-13T12:17:47.397Z,55.99
2018-09-13T12:18:47.173Z,56.81
2018-09-13T12:19:47.001Z,56.81
2018-09-13T12:20:46.856Z,57.01
2018-09-13T12:21:46.656Z,56.94
2018-09-13T12:22:46.488Z,56.71
2018-09-13T12:23:46.318Z,55.84
2018-09-13T12:24:46.150Z,55.91
2018-09-13T12:25:46.019Z,55.81
2018-09-13T12:26:45.813Z,55.81
2018-09-13T12:27:45.649Z,55.91
2018-09-13T12:28:45.480Z,55.71
2018-09-13T12:29:45.304Z,55.91
2018-09-13T12:30:45.135Z,55.88
2018-09-13T12:31:44.994Z,55.91
2018-09-13T12:32:44.820Z,55.79
2018-09-13T12:33:44.694Z,55.99
2018-09-13T12:34:44.452Z,55.69
2018-09-13T12:35:44.282Z,55.99
2018-09-13T12:36:44.141Z,55.96
2018-09-13T12:37:43.945Z,56.18
2018-09-13T12:38:43.770Z,55.96
2018-09-13T12:39:43.595Z,56.06
2018-09-13T12:40:43.418Z,55.86
2018-09-13T12:41:43.267Z,55.96
2018-09-13T12:42:43.065Z,55.73
2018-09-13T12:43:42.885Z,55.46
2018-09-13T12:44:42.707Z,55.83
2018-09-13T12:45:42.521Z,55.83
2018-09-13T12:46:42.368Z,55.43
2018-09-13T12:47:42.159Z,55.24
2018-09-13T12:48:41.973Z,55.04
2018-09-13T12:49:41.803Z,55.24
2018-09-13T12:50:41.608Z,55.11